createdAt,value
2019-03-30T00:00:20.870Z,8.20
2019-03-30T00:02:51.156Z,8.20
2019-03-30T00:05:21.492Z,8.20
2019-03-30T00:07:52.735Z,8.20
2019-03-30T00:10:22.969Z,8.20
2019-03-30T00:12:53.267Z,8.20
2019-03-30T00:15:23.523Z,8.10
2019-03-30T00:17:53.827Z,8.20
2019-03-30T00:20:24.103Z,8.20
2019-03-30T00:22:54.303Z,8.10
2019-03-30T00:25:24.532Z,8.10
2019-03-30T00:27:54.858Z,8.10
2019-03-30T00:30:25.210Z,8.00
2019-03-30T00:32:55.464Z,8.00
2019-03-30T00:35:25.772Z,8.00
2019-03-30T00:37:56.236Z,7.90
2019-03-30T00:40:26.506Z,7.90
2019-03-30T00:42:56.947Z,7.90
2019-03-30T00:45:27.205Z,7.90
2019-03-30T00:47:57.450Z,7.90
2019-03-30T00:50:27.673Z,7.90
2019-03-30T00:52:57.874Z,7.80
2019-03-30T00:55:29.216Z,7.70
2019-03-30T00:57:59.492Z,7.80
2019-03-30T01:00:29.928Z,7.80
2019-03-30T01:03:01.518Z,7.70
2019-03-30T01:05:31.766Z,7.70
2019-03-30T01:08:02.026Z,7.70
2019-03-30T01:10:32.420Z,7.70
2019-03-30T01:13:02.712Z,7.70
2019-03-30T01:15:32.930Z,7.70
2019-03-30T01:18:03.362Z,7.60
2019-03-30T01:20:33.815Z,7.60
2019-03-30T01:23:04.158Z,7.60
2019-03-30T01:25:36.717Z,7.60
2019-03-30T01:28:07.060Z,7.60
2019-03-30T01:30:37.321Z,7.60
2019-03-30T01:33:07.726Z,7.60
2019-03-30T01:35:38.025Z,7.60
2019-03-30T01:38:14.879Z,7.60
2019-03-30T01:40:45.294Z,7.50
2019-03-30T01:43:15.641Z,7.50
2019-03-30T01:45:46.967Z,7.50
2019-03-30T01:48:17.201Z,7.40
2019-03-30T01:50:47.503Z,7.40
2019-03-30T01:53:17.775Z,7.30
2019-03-30T01:55:48.064Z,7.30
2019-03-30T01:58:18.378Z,7.30
2019-03-30T02:00:48.891Z,7.30
2019-03-30T02:03:19.191Z,7.30
2019-03-30T02:05:49.528Z,7.20
2019-03-30T02:08:19.889Z,7.20
2019-03-30T02:10:50.225Z,7.10
2019-03-30T02:13:20.695Z,7.10
2019-03-30T02:15:50.914Z,7.00
2019-03-30T02:18:21.152Z,7.00
2019-03-30T02:20:51.451Z,7.00
2019-03-30T02:23:21.854Z,6.90
2019-03-30T02:25:52.181Z,6.90
2019-03-30T02:28:22.431Z,6.90
2019-03-30T02:30:52.716Z,6.90
2019-03-30T02:33:22.984Z,6.80
2019-03-30T02:35:53.352Z,6.80
2019-03-30T02:38:23.585Z,6.80
2019-03-30T02:40:53.935Z,6.80
2019-03-30T02:43:24.159Z,6.80
2019-03-30T02:45:54.408Z,6.80
2019-03-30T02:48:24.789Z,6.80
2019-03-30T02:50:55.046Z,6.70
2019-03-30T02:53:25.355Z,6.70
2019-03-30T02:55:55.593Z,6.70
2019-03-30T02:58:25.849Z,6.70
2019-03-30T03:00:57.621Z,6.70
2019-03-30T03:03:27.894Z,6.60
2019-03-30T03:05:58.218Z,6.60
2019-03-30T03:08:28.482Z,6.60
2019-03-30T03:10:58.847Z,6.60
2019-03-30T03:13:29.419Z,6.60
2019-03-30T03:15:59.750Z,6.60
2019-03-30T03:18:30.055Z,6.60
2019-03-30T03:21:07.972Z,6.60
2019-03-30T03:23:32.256Z,6.50
2019-03-30T03:26:02.471Z,6.50
2019-03-30T03:28:38.189Z,6.50
2019-03-30T03:31:08.539Z,6.40
2019-03-30T03:33:38.870Z,6.40
2019-03-30T03:36:09.140Z,6.40
2019-03-30T03:38:39.496Z,6.40
2019-03-30T03:41:09.929Z,6.30
2019-03-30T03:43:40.229Z,6.30
2019-03-30T03:46:10.584Z,6.30
2019-03-30T03:48:40.912Z,6.30
2019-03-30T03:51:25.623Z,6.30
2019-03-30T03:53:44.174Z,6.30
2019-03-30T03:56:15.870Z,6.20
2019-03-30T03:58:47.493Z,6.20
2019-03-30T04:01:20.371Z,6.20
2019-03-30T04:03:53.101Z,6.20
2019-03-30T04:06:24.749Z,6.20
2019-03-30T04:08:59.423Z,6.20
2019-03-30T04:11:32.128Z,6.20
2019-03-30T04:14:03.742Z,6.20
2019-03-30T04:16:35.238Z,6.20
2019-03-30T04:19:05.564Z,6.20
2019-03-30T04:21:43.670Z,6.20
2019-03-30T04:24:07.828Z,6.30
2019-03-30T04:26:38.199Z,6.30
2019-03-30T04:29:08.445Z,6.30
2019-03-30T04:31:39.133Z,6.30
2019-03-30T04:34:09.375Z,6.20
2019-03-30T04:36:39.705Z,6.20
2019-03-30T04:39:09.987Z,6.20
2019-03-30T04:41:40.316Z,6.10
2019-03-30T04:44:10.519Z,6.10
2019-03-30T04:46:40.819Z,6.00
2019-03-30T04:49:11.059Z,6.00
2019-03-30T04:51:41.329Z,6.00
2019-03-30T04:54:11.602Z,6.00
2019-03-30T04:56:41.827Z,6.00
2019-03-30T04:59:12.075Z,5.90
2019-03-30T05:01:42.321Z,5.90
2019-03-30T05:04:12.570Z,5.90
2019-03-30T05:06:42.908Z,6.00
2019-03-30T05:09:13.287Z,6.00
2019-03-30T05:11:45.308Z,5.90
2019-03-30T05:14:15.567Z,6.00
2019-03-30T05:16:45.849Z,6.00
2019-03-30T05:19:16.159Z,6.10
2019-03-30T05:21:52.187Z,6.10
2019-03-30T05:24:22.521Z,6.10
2019-03-30T05:26:52.921Z,6.20
2019-03-30T05:29:23.169Z,6.30
2019-03-30T05:31:53.475Z,6.30
2019-03-30T05:34:23.739Z,6.40
2019-03-30T05:36:53.975Z,6.40
2019-03-30T05:39:24.194Z,6.40
2019-03-30T05:41:54.461Z,6.50
2019-03-30T05:44:24.681Z,6.50
2019-03-30T05:46:55.005Z,6.60
2019-03-30T05:49:25.244Z,6.60
2019-03-30T05:51:55.619Z,6.70
2019-03-30T05:54:25.851Z,6.70
2019-03-30T05:56:56.099Z,6.80
2019-03-30T05:59:26.369Z,6.90
2019-03-30T06:01:56.581Z,6.90
2019-03-30T06:04:26.795Z,6.90
2019-03-30T06:06:56.999Z,7.00
2019-03-30T06:09:27.202Z,7.00
2019-03-30T06:11:57.494Z,7.20
2019-03-30T06:14:27.799Z,7.30
2019-03-30T06:16:58.039Z,7.50
2019-03-30T06:19:28.271Z,7.70
2019-03-30T06:21:58.499Z,7.90
2019-03-30T06:24:29.761Z,8.20
2019-03-30T06:27:00.189Z,8.50
2019-03-30T06:29:30.535Z,8.80
2019-03-30T06:32:00.787Z,9.00
2019-03-30T06:34:32.464Z,9.20
2019-03-30T06:37:02.720Z,9.40
2019-03-30T06:39:32.953Z,9.50
2019-03-30T06:42:03.241Z,9.60
2019-03-30T06:44:33.513Z,9.80
2019-03-30T06:47:03.933Z,9.90
2019-03-30T06:49:34.137Z,10.00
2019-03-30T06:52:04.388Z,10.10
2019-03-30T06:54:34.603Z,10.20
2019-03-30T06:57:05.815Z,10.20
2019-03-30T06:59:36.106Z,10.30
2019-03-30T07:02:07.795Z,10.50
2019-03-30T07:04:38.178Z,10.60
2019-03-30T07:07:09.792Z,10.70
2019-03-30T07:09:43.495Z,10.80
2019-03-30T07:12:14.887Z,10.80
2019-03-30T07:14:48.237Z,10.80
2019-03-30T07:17:19.023Z,10.90
2019-03-30T07:19:52.338Z,10.90
2019-03-30T07:22:22.659Z,11.00
2019-03-30T07:24:52.886Z,11.00
2019-03-30T07:27:23.152Z,11.10
2019-03-30T07:29:53.552Z,11.20
2019-03-30T07:32:24.199Z,11.10
2019-03-30T07:34:54.409Z,11.20
2019-03-30T07:37:24.671Z,11.20
2019-03-30T07:39:54.992Z,11.20
2019-03-30T07:42:26.399Z,11.20
2019-03-30T07:44:56.769Z,11.20
2019-03-30T07:47:27.056Z,11.20
2019-03-30T07:49:57.536Z,11.30
2019-03-30T07:52:27.836Z,11.30
2019-03-30T07:55:03.827Z,11.40
2019-03-30T07:57:34.119Z,11.40
2019-03-30T08:00:04.749Z,11.50
2019-03-30T08:02:36.079Z,11.50
2019-03-30T08:05:06.511Z,11.60
2019-03-30T08:07:36.779Z,11.70
2019-03-30T08:10:07.981Z,11.70
2019-03-30T08:12:38.208Z,11.80
2019-03-30T08:15:08.852Z,11.90
2019-03-30T08:17:39.171Z,12.10
2019-03-30T08:20:09.968Z,12.20
2019-03-30T08:22:40.254Z,13.10
2019-03-30T08:25:11.006Z,12.40
2019-03-30T08:27:41.317Z,12.50
2019-03-30T08:30:12.245Z,12.70
2019-03-30T08:32:42.541Z,12.80
2019-03-30T08:35:14.985Z,12.90
2019-03-30T08:37:44.991Z,13.00
2019-03-30T08:40:15.661Z,13.10
2019-03-30T08:42:45.930Z,13.20
2019-03-30T08:45:16.355Z,13.20
2019-03-30T08:47:46.641Z,13.20
2019-03-30T08:50:17.137Z,13.30
2019-03-30T08:52:47.354Z,13.40
2019-03-30T08:55:17.842Z,13.60
2019-03-30T08:57:48.187Z,13.60
2019-03-30T09:00:37.084Z,13.70
2019-03-30T09:03:07.553Z,13.80
2019-03-30T09:05:37.973Z,13.80
2019-03-30T09:08:09.175Z,13.90
2019-03-30T09:10:39.692Z,14.10
2019-03-30T09:13:09.929Z,14.10
2019-03-30T09:15:40.184Z,14.10
2019-03-30T09:18:10.396Z,14.20
2019-03-30T09:20:40.648Z,14.20
2019-03-30T09:23:10.954Z,14.30
2019-03-30T09:25:41.502Z,14.30
2019-03-30T09:28:12.012Z,14.20
2019-03-30T09:30:43.790Z,14.30
2019-03-30T09:33:14.054Z,14.30
2019-03-30T09:35:44.472Z,14.30
2019-03-30T09:38:15.525Z,14.40
2019-03-30T09:40:51.657Z,14.40
2019-03-30T09:43:22.026Z,14.50
2019-03-30T09:45:52.323Z,14.60
2019-03-30T09:48:24.126Z,14.80
2019-03-30T09:50:54.497Z,14.90
2019-03-30T09:53:24.884Z,15.00
2019-03-30T09:55:58.219Z,15.10
2019-03-30T09:58:28.483Z,15.10
2019-03-30T10:00:58.799Z,15.20
2019-03-30T10:03:32.116Z,15.20
2019-03-30T10:06:02.416Z,15.20
2019-03-30T10:08:32.700Z,15.10
2019-03-30T10:11:05.786Z,15.10
2019-03-30T10:13:35.996Z,15.10
2019-03-30T10:16:06.196Z,15.20
2019-03-30T10:18:38.000Z,15.30
2019-03-30T10:21:08.252Z,15.40
2019-03-30T10:23:38.518Z,15.60
2019-03-30T10:26:08.835Z,15.80
2019-03-30T10:28:39.354Z,15.80
2019-03-30T10:31:09.725Z,16.00
2019-03-30T10:33:39.984Z,16.10
2019-03-30T10:36:10.397Z,16.20
2019-03-30T10:38:40.852Z,16.20
2019-03-30T10:41:11.226Z,16.20
2019-03-30T10:43:41.734Z,16.20
2019-03-30T10:46:12.077Z,16.30
2019-03-30T10:48:42.564Z,16.40
2019-03-30T10:51:12.824Z,16.50
2019-03-30T10:53:43.204Z,16.40
2019-03-30T10:56:13.474Z,16.40
2019-03-30T10:58:43.732Z,16.40
2019-03-30T11:01:14.200Z,16.50
2019-03-30T11:03:44.425Z,16.60
2019-03-30T11:06:15.878Z,16.70
2019-03-30T11:08:46.152Z,16.90
2019-03-30T11:11:16.479Z,17.10
2019-03-30T11:13:46.821Z,17.10
2019-03-30T11:16:17.066Z,17.20
2019-03-30T11:18:47.438Z,17.10
2019-03-30T11:21:17.874Z,17.00
2019-03-30T11:23:48.158Z,16.80
2019-03-30T11:26:18.670Z,16.70
2019-03-30T11:28:48.969Z,16.60
2019-03-30T11:31:19.609Z,16.60
2019-03-30T11:33:49.873Z,16.60
2019-03-30T11:36:20.306Z,16.70
2019-03-30T11:38:50.691Z,16.70
2019-03-30T11:41:21.180Z,16.70
2019-03-30T11:43:53.655Z,16.60
2019-03-30T11:46:23.949Z,16.60
2019-03-30T11:48:54.279Z,16.60
2019-03-30T11:51:24.554Z,16.70
2019-03-30T11:53:55.046Z,16.90
2019-03-30T11:56:25.283Z,17.00
2019-03-30T11:58:55.879Z,17.10
2019-03-30T12:01:26.205Z,17.20
2019-03-30T12:03:56.445Z,17.10
2019-03-30T12:06:26.778Z,17.10
2019-03-30T12:08:58.043Z,17.10
2019-03-30T12:11:28.507Z,17.10
2019-03-30T12:13:58.757Z,17.10
2019-03-30T12:16:29.138Z,17.20
2019-03-30T12:18:59.477Z,17.30
2019-03-30T12:21:29.733Z,17.30
2019-03-30T12:24:00.053Z,17.40
2019-03-30T12:26:30.323Z,17.40
2019-03-30T12:29:00.625Z,17.40
2019-03-30T12:31:30.852Z,17.50
2019-03-30T12:34:01.138Z,17.60
2019-03-30T12:36:31.759Z,17.60
2019-03-30T12:39:02.177Z,17.70
2019-03-30T12:41:34.084Z,17.60
2019-03-30T12:44:05.466Z,17.60
2019-03-30T12:46:35.822Z,17.60
2019-03-30T12:49:06.155Z,17.70
2019-03-30T12:51:36.511Z,17.70
2019-03-30T12:54:06.888Z,17.70
2019-03-30T12:56:38.204Z,17.80
2019-03-30T12:59:08.606Z,17.90
2019-03-30T13:01:38.998Z,17.90
2019-03-30T13:04:09.267Z,17.90
2019-03-30T13:06:39.528Z,17.90
2019-03-30T13:09:09.910Z,17.90
2019-03-30T13:11:40.271Z,18.00
2019-03-30T13:14:10.563Z,18.00
2019-03-30T13:16:40.872Z,18.10
2019-03-30T13:19:11.205Z,18.10
2019-03-30T13:21:52.045Z,18.10
2019-03-30T13:24:13.700Z,18.10
2019-03-30T13:26:44.194Z,18.10
2019-03-30T13:29:14.442Z,18.00
2019-03-30T13:31:44.686Z,18.10
2019-03-30T13:34:14.999Z,18.10
2019-03-30T13:36:45.336Z,18.10
2019-03-30T13:39:15.644Z,18.00
2019-03-30T13:41:46.210Z,18.00
2019-03-30T13:44:16.512Z,18.10
2019-03-30T13:46:47.097Z,18.10
2019-03-30T13:49:17.630Z,18.10
2019-03-30T13:51:47.979Z,18.10
2019-03-30T13:54:18.512Z,18.20
2019-03-30T13:56:50.213Z,18.20
2019-03-30T13:59:20.750Z,18.20
2019-03-30T14:01:51.137Z,18.30
2019-03-30T14:04:21.568Z,18.30
2019-03-30T14:06:51.969Z,18.30
2019-03-30T14:09:22.261Z,18.30
2019-03-30T14:11:54.110Z,18.30
2019-03-30T14:14:24.321Z,18.10
2019-03-30T14:16:57.816Z,18.00
2019-03-30T14:19:28.079Z,18.00
2019-03-30T14:21:58.597Z,17.90
2019-03-30T14:24:28.994Z,17.90
2019-03-30T14:26:59.442Z,17.90
2019-03-30T14:29:29.702Z,17.90
2019-03-30T14:31:59.907Z,18.00
2019-03-30T14:34:30.180Z,18.00
2019-03-30T14:37:00.419Z,18.00
2019-03-30T14:39:30.653Z,18.00
2019-03-30T14:42:01.069Z,18.00
2019-03-30T14:44:31.459Z,17.90
2019-03-30T14:47:01.867Z,18.00
2019-03-30T14:49:32.240Z,17.90
2019-03-30T14:52:02.518Z,17.90
2019-03-30T14:54:32.867Z,17.90
2019-03-30T14:57:03.166Z,17.80
2019-03-30T14:59:33.490Z,17.80
2019-03-30T15:02:03.897Z,17.80
2019-03-30T15:04:34.276Z,17.80
2019-03-30T15:07:04.649Z,17.90
2019-03-30T15:09:34.916Z,17.90
2019-03-30T15:12:05.144Z,17.90
2019-03-30T15:14:35.348Z,17.80
2019-03-30T15:17:05.622Z,17.80
2019-03-30T15:19:35.954Z,17.80
2019-03-30T15:22:06.186Z,17.80
2019-03-30T15:24:36.504Z,17.80
2019-03-30T15:27:06.749Z,17.80
2019-03-30T15:29:36.950Z,17.70
2019-03-30T15:32:07.262Z,17.70
2019-03-30T15:34:37.613Z,17.70
2019-03-30T15:37:07.897Z,17.70
2019-03-30T15:39:38.292Z,17.70
2019-03-30T15:42:08.870Z,17.70
2019-03-30T15:44:39.347Z,17.70
2019-03-30T15:47:09.572Z,17.70
2019-03-30T15:49:40.830Z,17.70
2019-03-30T15:52:14.102Z,17.70
2019-03-30T15:54:43.138Z,17.60
2019-03-30T15:57:14.565Z,17.60
2019-03-30T15:59:44.939Z,17.60
2019-03-30T16:02:15.153Z,17.60
2019-03-30T16:04:45.484Z,17.60
2019-03-30T16:07:15.754Z,17.60
2019-03-30T16:09:46.122Z,17.50
2019-03-30T16:12:16.521Z,17.50
2019-03-30T16:14:46.742Z,17.40
2019-03-30T16:17:17.091Z,17.40
2019-03-30T16:19:47.307Z,17.40
2019-03-30T16:22:17.574Z,17.40
2019-03-30T16:24:48.078Z,17.30
2019-03-30T16:27:28.682Z,17.30
2019-03-30T16:29:50.474Z,17.30
2019-03-30T16:32:21.184Z,17.20
2019-03-30T16:34:51.702Z,17.10
2019-03-30T16:37:22.382Z,17.10
2019-03-30T16:39:53.763Z,17.00
2019-03-30T16:42:24.605Z,17.00
2019-03-30T16:44:55.629Z,16.90
2019-03-30T16:47:26.765Z,17.00
2019-03-30T16:49:57.248Z,17.00
2019-03-30T16:52:27.717Z,16.90
2019-03-30T16:54:58.088Z,16.80
2019-03-30T16:57:42.130Z,16.80
2019-03-30T17:00:00.378Z,16.80
2019-03-30T17:02:30.601Z,16.70
2019-03-30T17:05:00.876Z,16.70
2019-03-30T17:07:31.135Z,16.70
2019-03-30T17:10:04.695Z,16.60
2019-03-30T17:12:34.909Z,16.60
2019-03-30T17:15:05.503Z,16.60
2019-03-30T17:17:35.832Z,16.50
2019-03-30T17:20:06.843Z,16.40
2019-03-30T17:22:37.211Z,16.40
2019-03-30T17:25:08.505Z,16.30
2019-03-30T17:27:38.765Z,16.30
2019-03-30T17:30:10.614Z,16.20
2019-03-30T17:32:40.851Z,16.10
2019-03-30T17:35:11.373Z,16.00
2019-03-30T17:37:42.754Z,15.90
2019-03-30T17:40:14.845Z,15.70
2019-03-30T17:42:45.077Z,15.50
2019-03-30T17:45:15.519Z,15.40
2019-03-30T17:47:45.766Z,15.20
2019-03-30T17:50:16.566Z,15.20
2019-03-30T17:52:46.884Z,15.10
2019-03-30T17:55:17.114Z,15.10
2019-03-30T17:57:48.999Z,14.90
2019-03-30T18:00:20.064Z,14.90
2019-03-30T18:02:50.304Z,14.80
2019-03-30T18:05:20.774Z,14.90
2019-03-30T18:07:51.030Z,14.80
2019-03-30T18:10:21.411Z,14.70
2019-03-30T18:12:51.806Z,14.70
2019-03-30T18:15:22.083Z,14.60
2019-03-30T18:17:56.499Z,14.60
2019-03-30T18:20:25.790Z,14.50
2019-03-30T18:22:56.051Z,14.50
2019-03-30T18:25:26.438Z,14.50
2019-03-30T18:27:56.807Z,14.50
2019-03-30T18:30:38.674Z,14.40
2019-03-30T18:33:09.278Z,14.40
2019-03-30T18:35:40.953Z,14.30
2019-03-30T18:38:12.918Z,14.30
2019-03-30T18:40:43.499Z,14.20
2019-03-30T18:43:14.137Z,14.10
2019-03-30T18:45:44.410Z,14.10
2019-03-30T18:48:16.480Z,14.00
2019-03-30T18:50:47.399Z,13.90
2019-03-30T18:53:17.955Z,13.80
2019-03-30T18:55:49.691Z,13.80
2019-03-30T18:58:19.963Z,13.90
2019-03-30T19:00:50.257Z,13.90
2019-03-30T19:03:22.669Z,13.90
2019-03-30T19:05:53.067Z,13.80
2019-03-30T19:08:23.587Z,13.70
2019-03-30T19:10:56.714Z,13.60
2019-03-30T19:13:27.037Z,13.50
2019-03-30T19:15:57.403Z,13.50
2019-03-30T19:18:27.781Z,13.40
2019-03-30T19:20:58.049Z,13.40
2019-03-30T19:23:28.306Z,13.40
2019-03-30T19:25:58.558Z,13.40
2019-03-30T19:28:31.404Z,13.40
2019-03-30T19:31:02.666Z,13.40
2019-03-30T19:33:33.055Z,13.40
2019-03-30T19:36:03.525Z,13.30
2019-03-30T19:38:33.831Z,13.20
2019-03-30T19:41:04.267Z,13.20
2019-03-30T19:43:34.537Z,13.10
2019-03-30T19:46:05.315Z,13.10
2019-03-30T19:48:37.163Z,13.10
2019-03-30T19:51:07.668Z,13.10
2019-03-30T19:53:38.075Z,13.10
2019-03-30T19:56:08.489Z,13.10
2019-03-30T19:58:41.275Z,13.10
2019-03-30T20:01:10.813Z,13.20
2019-03-30T20:03:41.437Z,13.20
2019-03-30T20:06:11.775Z,13.10
2019-03-30T20:08:42.132Z,13.20
2019-03-30T20:11:12.447Z,13.20
2019-03-30T20:13:42.698Z,13.20
2019-03-30T20:16:13.079Z,13.10
2019-03-30T20:18:43.300Z,13.10
2019-03-30T20:21:13.647Z,13.10
2019-03-30T20:23:44.047Z,13.00
2019-03-30T20:26:14.279Z,13.00
2019-03-30T20:28:44.567Z,12.90
2019-03-30T20:31:14.880Z,13.00
2019-03-30T20:33:46.664Z,13.00
2019-03-30T20:36:18.768Z,13.10
2019-03-30T20:38:49.157Z,13.10
2019-03-30T20:41:19.538Z,13.10
2019-03-30T20:43:49.777Z,13.00
2019-03-30T20:46:20.157Z,13.00
2019-03-30T20:48:51.493Z,13.00
2019-03-30T20:51:21.910Z,12.90
2019-03-30T20:53:52.569Z,12.90
2019-03-30T20:56:22.888Z,12.90
2019-03-30T20:58:54.347Z,13.00
2019-03-30T21:01:24.560Z,13.00
2019-03-30T21:03:54.839Z,13.00
2019-03-30T21:06:25.054Z,13.10
2019-03-30T21:08:55.313Z,13.20
2019-03-30T21:11:25.689Z,13.20
2019-03-30T21:13:56.885Z,13.20
2019-03-30T21:16:27.472Z,13.20
2019-03-30T21:18:57.780Z,13.20
2019-03-30T21:21:28.454Z,13.20
2019-03-30T21:23:58.840Z,13.20
2019-03-30T21:26:29.204Z,13.20
2019-03-30T21:28:59.631Z,13.20
2019-03-30T21:31:30.036Z,13.30
2019-03-30T21:34:00.448Z,13.40
2019-03-30T21:36:30.732Z,13.40
2019-03-30T21:39:05.398Z,13.40
2019-03-30T21:41:36.004Z,13.40
2019-03-30T21:44:06.294Z,13.30
2019-03-30T21:46:38.109Z,13.30
2019-03-30T21:49:08.558Z,13.20
2019-03-30T21:51:38.826Z,13.10
2019-03-30T21:54:09.084Z,13.10
2019-03-30T21:56:39.345Z,13.00
2019-03-30T21:59:09.664Z,12.90
2019-03-30T22:01:39.953Z,12.90
2019-03-30T22:04:10.351Z,12.80
2019-03-30T22:06:40.685Z,12.70
2019-03-30T22:09:11.474Z,12.60
2019-03-30T22:11:41.782Z,12.60
2019-03-30T22:14:12.338Z,12.60
2019-03-30T22:16:42.584Z,12.60
2019-03-30T22:19:12.932Z,12.60
2019-03-30T22:21:44.291Z,12.60
2019-03-30T22:24:14.521Z,12.60
2019-03-30T22:26:44.885Z,12.70
2019-03-30T22:29:15.163Z,12.70
2019-03-30T22:31:45.388Z,12.70
2019-03-30T22:34:17.990Z,12.60
2019-03-30T22:36:48.522Z,12.50
2019-03-30T22:39:18.792Z,12.40
2019-03-30T22:41:49.046Z,12.30
2019-03-30T22:44:19.291Z,12.30
2019-03-30T22:46:49.510Z,12.10
2019-03-30T22:49:19.838Z,12.10
2019-03-30T22:51:50.167Z,12.00
2019-03-30T22:54:20.516Z,12.00
2019-03-30T22:56:50.808Z,11.90
2019-03-30T22:59:21.049Z,11.80
2019-03-30T23:01:51.427Z,11.80
2019-03-30T23:04:21.676Z,11.70
2019-03-30T23:06:52.044Z,11.70
2019-03-30T23:09:22.386Z,11.70
2019-03-30T23:11:52.608Z,11.60
2019-03-30T23:14:22.852Z,11.60
2019-03-30T23:16:53.168Z,11.60
2019-03-30T23:19:23.388Z,11.60
2019-03-30T23:21:54.576Z,11.70
2019-03-30T23:24:24.768Z,11.80
2019-03-30T23:26:54.979Z,11.70
2019-03-30T23:29:25.326Z,11.70
2019-03-30T23:31:55.580Z,11.60
2019-03-30T23:34:25.820Z,11.60
2019-03-30T23:36:56.126Z,11.60
2019-03-30T23:39:26.522Z,11.50
2019-03-30T23:41:56.852Z,11.50
2019-03-30T23:44:27.166Z,11.40
2019-03-30T23:46:57.747Z,11.40
2019-03-30T23:49:27.952Z,11.40
2019-03-30T23:52:16.519Z,11.40
2019-03-30T23:54:46.848Z,11.40
2019-03-30T23:57:17.158Z,11.40
2019-03-30T23:59:47.488Z,11.50
